createdAt,value
2018-03-23T00:02:25.019Z,3.46
2018-03-23T00:05:28.250Z,3.45
2018-03-23T00:08:31.554Z,3.43
2018-03-23T00:11:34.765Z,3.41
2018-03-23T00:14:37.935Z,3.41
2018-03-23T00:17:41.291Z,3.44
2018-03-23T00:20:44.534Z,3.48
2018-03-23T00:23:47.847Z,3.50
2018-03-23T00:26:51.117Z,3.48
2018-03-23T00:29:54.440Z,3.45
2018-03-23T00:32:57.698Z,3.52
2018-03-23T00:36:01.010Z,3.48
2018-03-23T00:39:04.806Z,3.50
2018-03-23T00:42:08.142Z,3.48
2018-03-23T00:45:11.415Z,3.46
2018-03-23T00:48:14.975Z,3.47
2018-03-23T00:51:18.322Z,3.47
2018-03-23T00:54:21.526Z,3.49
2018-03-23T00:57:25.889Z,3.50
2018-03-23T01:00:29.135Z,3.48
2018-03-23T01:03:32.357Z,3.53
2018-03-23T01:06:35.637Z,3.49
2018-03-23T01:09:38.852Z,3.54
2018-03-23T01:12:42.119Z,3.50
2018-03-23T01:15:45.419Z,3.52
2018-03-23T01:18:48.733Z,3.55
2018-03-23T01:21:52.041Z,3.52
2018-03-23T01:24:55.322Z,3.56
2018-03-23T01:27:58.625Z,3.58
2018-03-23T01:31:01.912Z,3.56
2018-03-23T01:34:05.205Z,3.54
2018-03-23T01:37:08.463Z,3.62
2018-03-23T01:40:11.617Z,3.61
2018-03-23T01:43:14.912Z,3.58
2018-03-23T01:46:18.124Z,3.53
2018-03-23T01:49:21.307Z,3.56
2018-03-23T01:52:24.574Z,3.58
2018-03-23T01:55:27.901Z,3.54
2018-03-23T01:58:31.176Z,3.56
2018-03-23T02:01:34.474Z,3.61
2018-03-23T02:04:37.816Z,3.61
2018-03-23T02:07:41.069Z,3.60
2018-03-23T02:10:44.370Z,3.55
2018-03-23T02:13:47.664Z,3.55
2018-03-23T02:16:50.879Z,3.57
2018-03-23T02:19:54.145Z,3.65
2018-03-23T02:22:57.668Z,3.62
2018-03-23T02:26:00.914Z,3.58
2018-03-23T02:29:04.155Z,3.64
2018-03-23T02:32:07.435Z,3.60
2018-03-23T02:35:10.905Z,3.62
2018-03-23T02:38:14.127Z,3.58
2018-03-23T02:41:17.458Z,3.60
2018-03-23T02:44:20.689Z,3.58
2018-03-23T02:47:23.865Z,3.56
2018-03-23T02:50:27.073Z,3.61
2018-03-23T02:53:30.245Z,3.59
2018-03-23T02:56:33.566Z,3.63
2018-03-23T02:59:36.821Z,3.58
2018-03-23T03:02:40.103Z,3.60
2018-03-23T03:05:43.431Z,3.61
2018-03-23T03:08:46.706Z,3.63
2018-03-23T03:11:49.997Z,3.65
2018-03-23T03:14:53.317Z,3.64
2018-03-23T03:17:56.612Z,3.68
2018-03-23T03:20:59.842Z,3.69
2018-03-23T03:24:03.090Z,3.68
2018-03-23T03:27:06.394Z,3.68
2018-03-23T03:30:09.660Z,3.64
2018-03-23T03:33:12.869Z,3.61
2018-03-23T03:36:16.175Z,3.69
2018-03-23T03:39:19.421Z,3.68
2018-03-23T03:42:22.693Z,3.72
2018-03-23T03:45:25.916Z,3.64
2018-03-23T03:48:29.097Z,3.69
2018-03-23T03:51:32.364Z,3.63
2018-03-23T03:54:35.697Z,3.66
2018-03-23T03:57:38.923Z,3.67
2018-03-23T04:00:42.150Z,3.67
2018-03-23T04:03:45.435Z,3.68
2018-03-23T04:06:48.678Z,3.68
2018-03-23T04:09:51.957Z,3.66
2018-03-23T04:12:55.183Z,3.67
2018-03-23T04:15:58.778Z,3.69
2018-03-23T04:19:02.003Z,3.76
2018-03-23T04:22:05.592Z,3.71
2018-03-23T04:25:08.859Z,3.68
2018-03-23T04:28:12.126Z,3.66
2018-03-23T04:31:15.453Z,3.69
2018-03-23T04:34:18.714Z,3.67
2018-03-23T04:37:22.062Z,3.67
2018-03-23T04:40:25.326Z,3.72
2018-03-23T04:43:28.614Z,3.71
2018-03-23T04:46:31.906Z,3.65
2018-03-23T04:49:35.201Z,3.72
2018-03-23T04:52:38.525Z,3.70
2018-03-23T04:55:41.826Z,3.67
2018-03-23T04:58:45.093Z,3.68
2018-03-23T05:01:48.431Z,3.67
2018-03-23T05:04:51.643Z,3.72
2018-03-23T05:07:54.893Z,3.66
2018-03-23T05:10:58.177Z,3.67
2018-03-23T05:14:01.502Z,3.71
2018-03-23T05:17:04.790Z,3.77
2018-03-23T05:20:08.025Z,3.75
2018-03-23T05:23:11.303Z,3.77
2018-03-23T05:26:14.611Z,3.66
2018-03-23T05:29:17.874Z,3.64
2018-03-23T05:32:21.219Z,3.61
2018-03-23T05:35:24.410Z,3.62
2018-03-23T05:38:27.821Z,3.63
2018-03-23T05:41:31.077Z,3.62
2018-03-23T05:44:34.365Z,3.65
2018-03-23T05:47:37.657Z,3.65
2018-03-23T05:50:40.967Z,3.68
2018-03-23T05:53:44.250Z,3.69
2018-03-23T05:56:47.548Z,3.70
2018-03-23T05:59:50.887Z,3.69
2018-03-23T06:02:54.138Z,3.71
2018-03-23T06:05:57.457Z,3.70
2018-03-23T06:09:00.730Z,3.76
2018-03-23T06:12:04.016Z,3.67
2018-03-23T06:15:07.339Z,3.81
2018-03-23T06:18:10.602Z,3.76
2018-03-23T06:21:13.846Z,3.79
2018-03-23T06:24:17.094Z,3.73
2018-03-23T06:27:20.254Z,3.74
2018-03-23T06:30:23.594Z,3.74
2018-03-23T06:33:26.829Z,3.84
2018-03-23T06:36:30.045Z,3.83
2018-03-23T06:39:33.450Z,3.83
2018-03-23T06:42:36.597Z,3.84
2018-03-23T06:45:39.810Z,3.87
2018-03-23T06:48:42.962Z,3.86
2018-03-23T06:51:46.134Z,3.83
2018-03-23T06:54:49.375Z,3.81
2018-03-23T06:57:53.334Z,3.81
2018-03-23T07:00:56.527Z,3.88
2018-03-23T07:03:59.705Z,3.88
2018-03-23T07:07:02.909Z,3.95
2018-03-23T07:10:06.099Z,3.94
2018-03-23T07:13:09.278Z,3.91
2018-03-23T07:16:12.476Z,3.87
2018-03-23T07:19:15.665Z,3.93
2018-03-23T07:22:19.007Z,3.93
2018-03-23T07:25:22.219Z,4.01
2018-03-23T07:28:25.465Z,3.98
2018-03-23T07:31:28.669Z,4.01
2018-03-23T07:34:31.974Z,4.03
2018-03-23T07:37:35.162Z,4.06
2018-03-23T07:40:38.389Z,3.99
2018-03-23T07:43:41.813Z,4.09
2018-03-23T07:46:45.719Z,4.12
2018-03-23T07:49:48.967Z,4.15
2018-03-23T07:52:52.289Z,4.23
2018-03-23T07:55:55.573Z,4.25
2018-03-23T07:58:58.746Z,4.25
2018-03-23T08:02:01.958Z,4.14
2018-03-23T08:05:05.150Z,4.16
2018-03-23T08:08:08.443Z,4.13
2018-03-23T08:11:11.771Z,4.10
2018-03-23T08:14:15.084Z,4.11
2018-03-23T08:17:18.314Z,4.15
2018-03-23T08:20:21.559Z,4.27
2018-03-23T08:23:24.827Z,4.26
2018-03-23T08:26:27.998Z,4.24
2018-03-23T08:29:31.167Z,4.27
2018-03-23T08:32:34.432Z,4.28
2018-03-23T08:35:37.616Z,4.35
2018-03-23T08:38:40.842Z,4.38
2018-03-23T08:41:44.172Z,4.38
2018-03-23T08:44:47.413Z,4.39
2018-03-23T08:47:51.623Z,4.42
2018-03-23T08:50:54.998Z,4.51
2018-03-23T08:53:58.199Z,4.51
2018-03-23T08:57:01.418Z,4.53
2018-03-23T09:00:04.699Z,4.56
2018-03-23T09:03:07.935Z,4.57
2018-03-23T09:06:11.148Z,4.55
2018-03-23T09:09:14.394Z,4.58
2018-03-23T09:12:17.730Z,4.56
2018-03-23T09:15:21.081Z,4.63
2018-03-23T09:18:24.248Z,4.66
2018-03-23T09:21:27.605Z,4.65
2018-03-23T09:24:30.889Z,4.58
2018-03-23T09:27:34.438Z,4.65
2018-03-23T09:30:37.628Z,4.62
2018-03-23T09:33:40.903Z,4.69
2018-03-23T09:36:44.361Z,4.67
2018-03-23T09:39:47.579Z,4.67
2018-03-23T09:42:50.775Z,4.73
2018-03-23T09:45:54.000Z,4.80
2018-03-23T09:48:57.394Z,4.85
2018-03-23T09:52:00.611Z,4.82
2018-03-23T09:55:03.895Z,4.85
2018-03-23T09:58:07.087Z,4.87
2018-03-23T10:01:10.416Z,4.93
2018-03-23T10:04:13.627Z,5.00
2018-03-23T10:07:16.932Z,5.01
2018-03-23T10:10:20.129Z,5.08
2018-03-23T10:13:23.343Z,5.07
2018-03-23T10:16:26.544Z,5.16
2018-03-23T10:19:29.825Z,5.29
2018-03-23T10:22:33.053Z,5.26
2018-03-23T10:25:36.247Z,5.23
2018-03-23T10:28:39.428Z,5.20
2018-03-23T10:31:42.626Z,5.21
2018-03-23T10:34:45.843Z,5.32
2018-03-23T10:37:49.108Z,5.36
2018-03-23T10:40:52.407Z,5.37
2018-03-23T10:43:55.872Z,5.43
2018-03-23T10:46:59.046Z,5.41
2018-03-23T10:50:02.274Z,5.37
2018-03-23T10:53:05.857Z,5.34
2018-03-23T10:56:09.038Z,5.25
2018-03-23T10:59:12.236Z,5.32
2018-03-23T11:02:19.634Z,5.33
2018-03-23T11:05:23.084Z,5.42
2018-03-23T11:08:26.386Z,5.52
2018-03-23T11:11:29.619Z,5.52
2018-03-23T11:14:32.880Z,5.48
2018-03-23T11:17:36.086Z,5.51
2018-03-23T11:20:39.363Z,5.46
2018-03-23T11:23:42.525Z,5.48
2018-03-23T11:26:45.902Z,5.53
2018-03-23T11:29:49.162Z,5.63
2018-03-23T11:32:52.463Z,5.79
2018-03-23T11:35:55.822Z,5.98
2018-03-23T11:38:59.040Z,6.06
2018-03-23T11:42:02.254Z,6.20
2018-03-23T11:45:05.512Z,6.27
2018-03-23T11:48:08.715Z,6.25
2018-03-23T11:51:11.895Z,6.19
2018-03-23T11:54:15.260Z,6.33
2018-03-23T11:57:18.502Z,6.26
2018-03-23T12:00:22.092Z,6.16
2018-03-23T12:03:25.357Z,6.12
2018-03-23T12:06:28.544Z,6.17
2018-03-23T12:09:31.855Z,6.27
2018-03-23T12:12:35.083Z,6.34
2018-03-23T12:15:38.272Z,6.32
2018-03-23T12:18:41.941Z,6.41
2018-03-23T12:21:46.627Z,6.42
2018-03-23T12:24:49.959Z,6.42
2018-03-23T12:27:53.130Z,6.52
2018-03-23T12:30:56.378Z,6.78
2018-03-23T12:33:59.568Z,6.94
2018-03-23T12:37:02.733Z,6.87
2018-03-23T12:40:05.989Z,6.70
2018-03-23T12:43:09.219Z,6.67
2018-03-23T12:46:12.391Z,6.72
2018-03-23T12:49:16.299Z,6.84
2018-03-23T12:52:19.512Z,6.95
2018-03-23T12:55:22.731Z,7.00
2018-03-23T12:58:25.896Z,7.05
2018-03-23T13:01:29.090Z,7.08
2018-03-23T13:04:32.255Z,6.95
2018-03-23T13:07:35.443Z,6.95
2018-03-23T13:10:38.644Z,6.90
2018-03-23T13:13:41.870Z,6.93
2018-03-23T13:16:45.083Z,7.06
2018-03-23T13:19:48.270Z,7.05
2018-03-23T13:22:51.527Z,7.11
2018-03-23T13:25:54.767Z,7.18
2018-03-23T13:28:57.995Z,7.19
2018-03-23T13:32:01.289Z,7.30
2018-03-23T13:35:04.501Z,7.37
2018-03-23T13:38:07.655Z,7.32
2018-03-23T13:41:10.883Z,7.33
2018-03-23T13:44:14.175Z,7.26
2018-03-23T13:47:17.562Z,7.28
2018-03-23T13:50:20.926Z,7.28
2018-03-23T13:53:24.203Z,7.41
2018-03-23T13:56:27.375Z,7.33
2018-03-23T13:59:34.755Z,7.31
2018-03-23T14:02:38.066Z,7.34
2018-03-23T14:05:41.247Z,7.35
2018-03-23T14:08:44.582Z,7.33
2018-03-23T14:11:47.829Z,7.38
2018-03-23T14:14:51.972Z,7.44
2018-03-23T14:17:55.222Z,7.44
2018-03-23T14:20:58.427Z,7.50
2018-03-23T14:24:01.734Z,7.52
2018-03-23T14:27:04.898Z,7.61
2018-03-23T14:30:08.111Z,7.64
2018-03-23T14:33:11.344Z,7.59
2018-03-23T14:36:14.662Z,7.56
2018-03-23T14:39:17.897Z,7.50
2018-03-23T14:42:21.058Z,7.55
2018-03-23T14:45:24.230Z,7.55
2018-03-23T14:48:27.498Z,7.54
2018-03-23T14:51:30.706Z,7.61
2018-03-23T14:54:33.935Z,7.65
2018-03-23T14:57:37.158Z,7.66
2018-03-23T15:00:40.357Z,7.71
2018-03-23T15:04:04.020Z,7.69
2018-03-23T15:07:07.195Z,7.74
2018-03-23T15:10:10.378Z,7.75
2018-03-23T15:13:13.650Z,7.78
2018-03-23T15:16:16.809Z,7.84
2018-03-23T15:19:20.273Z,7.83
2018-03-23T15:22:23.927Z,7.91
2018-03-23T15:25:27.095Z,7.91
2018-03-23T15:28:30.310Z,7.90
2018-03-23T15:31:33.581Z,8.00
2018-03-23T15:34:36.882Z,7.92
2018-03-23T15:37:40.061Z,8.00
2018-03-23T15:40:43.250Z,8.00
2018-03-23T15:43:46.461Z,7.95
2018-03-23T15:46:49.641Z,8.02
2018-03-23T15:49:53.941Z,7.96
2018-03-23T15:52:57.111Z,7.91
2018-03-23T15:56:00.262Z,7.92
2018-03-23T15:59:03.433Z,7.90
2018-03-23T16:02:06.798Z,7.83
2018-03-23T16:05:10.100Z,7.84
2018-03-23T16:08:13.308Z,7.79
2018-03-23T16:11:16.538Z,7.79
2018-03-23T16:14:19.740Z,7.77
2018-03-23T16:17:23.117Z,7.74
2018-03-23T16:20:26.351Z,7.82
2018-03-23T16:23:29.730Z,7.89
2018-03-23T16:26:33.071Z,7.78
2018-03-23T16:29:36.209Z,7.82
2018-03-23T16:32:39.433Z,7.84
2018-03-23T16:35:42.611Z,7.79
2018-03-23T16:38:45.813Z,7.87
2018-03-23T16:41:49.074Z,8.13
2018-03-23T16:44:52.473Z,8.33
2018-03-23T16:47:55.812Z,8.67
2018-03-23T16:50:59.207Z,8.79
2018-03-23T16:54:02.465Z,8.78
2018-03-23T16:57:05.831Z,8.82
2018-03-23T17:00:09.252Z,8.90
2018-03-23T17:03:12.518Z,8.93
2018-03-23T17:06:15.704Z,8.93
2018-03-23T17:09:18.970Z,8.91
2018-03-23T17:12:22.311Z,8.92
2018-03-23T17:15:25.530Z,8.96
2018-03-23T17:18:28.815Z,8.89
2018-03-23T17:21:32.312Z,8.81
2018-03-23T17:24:35.534Z,8.76
2018-03-23T17:27:38.776Z,8.77
2018-03-23T17:30:41.977Z,8.84
2018-03-23T17:33:45.178Z,8.68
2018-03-23T17:36:48.412Z,8.66
2018-03-23T17:39:51.661Z,8.84
2018-03-23T17:42:54.976Z,8.91
2018-03-23T17:45:58.174Z,8.87
2018-03-23T17:49:01.390Z,8.85
2018-03-23T17:52:04.796Z,8.73
2018-03-23T17:55:08.101Z,8.49
2018-03-23T17:58:11.544Z,8.46
2018-03-23T18:01:14.850Z,8.53
2018-03-23T18:04:18.026Z,8.35
2018-03-23T18:07:21.237Z,8.25
2018-03-23T18:10:24.445Z,8.29
2018-03-23T18:13:27.652Z,8.32
2018-03-23T18:16:30.846Z,8.44
2018-03-23T18:19:33.977Z,8.48
2018-03-23T18:22:37.225Z,8.50
2018-03-23T18:25:40.426Z,8.48
2018-03-23T18:28:44.563Z,8.47
2018-03-23T18:31:47.815Z,8.41
2018-03-23T18:34:51.018Z,8.37
2018-03-23T18:37:54.250Z,8.36
2018-03-23T18:40:57.429Z,8.35
2018-03-23T18:44:00.677Z,8.35
2018-03-23T18:47:03.925Z,8.32
2018-03-23T18:50:07.092Z,8.28
2018-03-23T18:53:10.233Z,8.17
2018-03-23T18:56:13.508Z,8.15
2018-03-23T18:59:16.770Z,8.08
2018-03-23T19:02:20.019Z,8.07
2018-03-23T19:05:23.290Z,8.03
2018-03-23T19:08:26.607Z,7.97
2018-03-23T19:11:29.784Z,7.93
2018-03-23T19:14:33.055Z,7.86
2018-03-23T19:17:36.286Z,7.82
2018-03-23T19:20:39.571Z,7.79
2018-03-23T19:23:42.840Z,7.83
2018-03-23T19:26:46.048Z,7.84
2018-03-23T19:29:49.260Z,7.82
2018-03-23T19:32:52.654Z,7.84
2018-03-23T19:35:55.848Z,7.83
2018-03-23T19:38:59.043Z,7.83
2018-03-23T19:42:02.278Z,7.76
2018-03-23T19:45:05.572Z,7.64
2018-03-23T19:48:08.848Z,7.61
2018-03-23T19:51:12.125Z,7.49
2018-03-23T19:54:15.327Z,7.22
2018-03-23T19:57:18.680Z,7.11
2018-03-23T20:00:21.827Z,6.99
2018-03-23T20:03:26.162Z,6.95
2018-03-23T20:06:29.554Z,6.92
2018-03-23T20:09:32.765Z,6.90
2018-03-23T20:12:36.123Z,6.85
2018-03-23T20:15:39.332Z,6.84
2018-03-23T20:18:42.518Z,6.87
2018-03-23T20:21:45.703Z,6.70
2018-03-23T20:24:48.918Z,6.57
2018-03-23T20:27:56.275Z,6.58
2018-03-23T20:30:59.552Z,6.65
2018-03-23T20:34:02.893Z,6.69
2018-03-23T20:37:06.093Z,6.63
2018-03-23T20:40:09.299Z,6.60
2018-03-23T20:43:12.600Z,6.57
2018-03-23T20:46:15.915Z,6.60
2018-03-23T20:49:19.238Z,6.58
2018-03-23T20:52:22.644Z,6.50
2018-03-23T20:55:25.822Z,6.49
2018-03-23T20:58:29.132Z,6.39
2018-03-23T21:01:32.378Z,6.29
2018-03-23T21:04:35.549Z,6.25
2018-03-23T21:07:38.783Z,6.17
2018-03-23T21:10:42.051Z,6.16
2018-03-23T21:13:45.302Z,6.16
2018-03-23T21:16:48.560Z,6.12
2018-03-23T21:19:51.851Z,6.05
2018-03-23T21:22:55.159Z,6.02
2018-03-23T21:25:58.479Z,5.98
2018-03-23T21:29:01.745Z,5.94
2018-03-23T21:32:05.013Z,5.87
2018-03-23T21:35:08.364Z,5.80
2018-03-23T21:38:11.641Z,5.77
2018-03-23T21:41:14.931Z,5.75
2018-03-23T21:44:18.253Z,5.74
2018-03-23T21:47:21.523Z,5.66
2018-03-23T21:50:25.758Z,5.66
2018-03-23T21:53:29.056Z,5.63
2018-03-23T21:56:32.373Z,5.65
2018-03-23T21:59:35.670Z,5.63
2018-03-23T22:02:38.957Z,5.60
2018-03-23T22:05:42.272Z,5.57
2018-03-23T22:08:45.484Z,5.54
2018-03-23T22:11:48.774Z,5.45
2018-03-23T22:14:52.013Z,5.40
2018-03-23T22:17:55.333Z,5.36
2018-03-23T22:20:58.644Z,5.35
2018-03-23T22:24:02.942Z,5.33
2018-03-23T22:27:06.263Z,5.32
2018-03-23T22:30:09.557Z,5.30
2018-03-23T22:33:12.858Z,5.29
2018-03-23T22:36:16.292Z,5.24
2018-03-23T22:39:19.634Z,5.19
2018-03-23T22:42:22.960Z,5.15
2018-03-23T22:45:26.226Z,5.11
2018-03-23T22:48:29.508Z,5.10
2018-03-23T22:51:32.844Z,5.10
2018-03-23T22:54:36.124Z,5.07
2018-03-23T22:57:39.425Z,5.04
2018-03-23T23:00:42.803Z,5.00
2018-03-23T23:03:46.134Z,4.96
2018-03-23T23:06:49.702Z,4.90
2018-03-23T23:09:53.052Z,4.89
2018-03-23T23:12:56.365Z,4.87
2018-03-23T23:15:59.590Z,4.87
2018-03-23T23:19:03.051Z,4.79
2018-03-23T23:22:06.227Z,4.67
2018-03-23T23:25:09.524Z,4.62
2018-03-23T23:28:12.821Z,4.62
2018-03-23T23:31:16.066Z,4.67
2018-03-23T23:34:19.295Z,4.64
2018-03-23T23:37:22.506Z,4.61
2018-03-23T23:40:25.801Z,4.69
2018-03-23T23:43:29.071Z,4.68
2018-03-23T23:46:32.433Z,4.63
2018-03-23T23:49:36.909Z,4.57
2018-03-23T23:52:40.211Z,4.56
2018-03-23T23:55:43.460Z,4.56
2018-03-23T23:58:46.746Z,4.58
